createdAt,value
2023-02-20T00:01:55.823Z,96.58
2023-02-20T00:04:24.631Z,97.13
2023-02-20T00:06:53.031Z,96.72
2023-02-20T00:09:21.239Z,96.34
2023-02-20T00:11:49.457Z,97.33
2023-02-20T00:14:17.822Z,96.97
2023-02-20T00:16:49.170Z,96.94
2023-02-20T00:19:17.548Z,96.92
2023-02-20T00:21:50.440Z,97.58
2023-02-20T00:24:19.811Z,97.14
2023-02-20T00:26:53.097Z,96.55
2023-02-20T00:29:23.883Z,96.27
2023-02-20T00:31:57.502Z,96.60
2023-02-20T00:34:29.791Z,96.68
2023-02-20T00:36:58.003Z,96.57
2023-02-20T00:39:26.314Z,96.39
2023-02-20T00:41:56.183Z,96.07
2023-02-20T00:44:24.372Z,96.20
2023-02-20T00:46:52.680Z,95.79
2023-02-20T00:49:20.895Z,95.92
2023-02-20T00:51:49.637Z,95.88
2023-02-20T00:54:18.106Z,95.83
2023-02-20T00:56:47.462Z,95.51
2023-02-20T00:59:15.968Z,95.31
2023-02-20T01:01:44.506Z,94.81
2023-02-20T01:04:12.880Z,95.28
2023-02-20T01:06:43.429Z,95.11
2023-02-20T01:09:13.937Z,95.18
2023-02-20T01:11:44.689Z,95.18
2023-02-20T01:14:13.294Z,95.13
2023-02-20T01:16:49.176Z,94.86
2023-02-20T01:19:19.101Z,95.48
2023-02-20T01:21:48.850Z,95.60
2023-02-20T01:24:18.468Z,95.48
2023-02-20T01:26:49.960Z,95.85
2023-02-20T01:29:18.913Z,96.50
2023-02-20T01:31:49.058Z,96.53
2023-02-20T01:34:18.747Z,96.30
2023-02-20T01:36:52.090Z,96.18
2023-02-20T01:39:23.765Z,95.95
2023-02-20T01:41:56.487Z,96.34
2023-02-20T01:44:29.491Z,96.26
2023-02-20T01:46:58.993Z,96.60
2023-02-20T01:49:33.553Z,96.43
2023-02-20T01:52:17.804Z,96.08
2023-02-20T01:55:02.829Z,95.79
2023-02-20T01:57:33.871Z,95.36
2023-02-20T02:00:13.063Z,95.55
2023-02-20T02:02:52.158Z,95.34
2023-02-20T02:05:23.529Z,95.02
2023-02-20T02:07:55.210Z,95.04
2023-02-20T02:10:32.661Z,94.97
2023-02-20T02:13:01.809Z,94.73
2023-02-20T02:15:31.201Z,94.13
2023-02-20T02:18:11.227Z,93.49
2023-02-20T02:21:10.648Z,93.70
2023-02-20T02:23:57.527Z,93.88
2023-02-20T02:26:34.822Z,93.97
2023-02-20T02:29:26.755Z,94.56
2023-02-20T02:32:06.943Z,93.95
2023-02-20T02:34:55.369Z,93.70
2023-02-20T02:37:59.660Z,93.68
2023-02-20T02:40:57.165Z,93.54
2023-02-20T02:43:47.907Z,93.48
2023-02-20T02:46:26.721Z,93.70
2023-02-20T02:49:20.690Z,92.87
2023-02-20T02:51:50.740Z,92.73
2023-02-20T02:54:24.359Z,92.94
2023-02-20T02:56:54.631Z,92.28
2023-02-20T02:59:34.121Z,91.86
2023-02-20T03:02:09.562Z,91.43
2023-02-20T03:04:40.008Z,91.11
2023-02-20T03:07:11.986Z,90.87
2023-02-20T03:09:57.916Z,90.12
2023-02-20T03:12:27.702Z,89.88
2023-02-20T03:15:24.433Z,89.36
2023-02-20T03:18:18.085Z,88.67
2023-02-20T03:20:52.487Z,89.27
2023-02-20T03:23:28.221Z,89.23
2023-02-20T03:26:01.290Z,88.08
2023-02-20T03:28:35.240Z,88.07
2023-02-20T03:31:16.682Z,87.27
2023-02-20T03:34:08.525Z,87.12
2023-02-20T03:37:12.967Z,87.02
2023-02-20T03:40:04.232Z,86.54
2023-02-20T03:42:56.406Z,86.96
2023-02-20T03:45:32.706Z,85.83
2023-02-20T03:48:07.468Z,87.52
2023-02-20T03:50:54.495Z,86.92
2023-02-20T03:53:25.944Z,86.86
2023-02-20T03:55:58.584Z,87.01
2023-02-20T03:58:29.953Z,86.77
2023-02-20T04:01:03.695Z,86.18
2023-02-20T04:03:39.348Z,86.19
2023-02-20T04:06:11.488Z,86.59
2023-02-20T04:08:50.713Z,86.63
2023-02-20T04:11:27.293Z,86.36
2023-02-20T04:13:57.275Z,86.38
2023-02-20T04:16:26.067Z,85.61
2023-02-20T04:18:54.940Z,85.16
2023-02-20T04:21:43.556Z,84.51
2023-02-20T04:24:18.204Z,85.05
2023-02-20T04:26:47.099Z,85.15
2023-02-20T04:29:15.676Z,84.85
2023-02-20T04:31:44.105Z,84.78
2023-02-20T04:34:13.376Z,85.60
2023-02-20T04:36:42.320Z,85.69
2023-02-20T04:39:11.305Z,85.10
2023-02-20T04:41:39.744Z,84.08
2023-02-20T04:44:27.258Z,83.75
2023-02-20T04:46:56.519Z,83.39
2023-02-20T04:49:25.337Z,83.69
2023-02-20T04:51:55.858Z,83.08
2023-02-20T04:54:24.225Z,83.34
2023-02-20T04:56:53.472Z,82.58
2023-02-20T04:59:22.008Z,82.43
2023-02-20T05:01:52.262Z,83.82
2023-02-20T05:04:21.836Z,82.67
2023-02-20T05:06:53.085Z,83.43
2023-02-20T05:09:22.626Z,81.92
2023-02-20T05:11:50.860Z,81.33
2023-02-20T05:14:19.686Z,81.17
2023-02-20T05:16:49.403Z,82.23
2023-02-20T05:19:18.467Z,82.88
2023-02-20T05:22:05.759Z,83.04
2023-02-20T05:24:34.021Z,81.22
2023-02-20T05:27:02.507Z,81.76
2023-02-20T05:29:30.755Z,80.38
2023-02-20T05:31:59.020Z,81.64
2023-02-20T05:34:27.250Z,81.17
2023-02-20T05:36:57.350Z,81.26
2023-02-20T05:39:25.627Z,80.46
2023-02-20T05:41:53.904Z,80.81
2023-02-20T05:44:22.085Z,80.49
2023-02-20T05:46:50.326Z,80.03
2023-02-20T05:49:18.569Z,80.78
2023-02-20T05:51:46.937Z,81.49
2023-02-20T05:54:15.276Z,81.52
2023-02-20T05:56:44.918Z,81.00
2023-02-20T05:59:17.296Z,81.10
2023-02-20T06:01:46.462Z,80.83
2023-02-20T06:04:14.829Z,80.31
2023-02-20T06:06:43.266Z,79.84
2023-02-20T06:09:13.161Z,80.01
2023-02-20T06:11:41.423Z,80.69
2023-02-20T06:14:09.591Z,80.51
2023-02-20T06:16:37.940Z,80.98
2023-02-20T06:19:07.324Z,80.97
2023-02-20T06:21:36.248Z,81.11
2023-02-20T06:24:04.825Z,81.50
2023-02-20T06:26:33.107Z,82.38
2023-02-20T06:29:01.319Z,82.72
2023-02-20T06:31:29.782Z,80.74
2023-02-20T06:33:58.108Z,81.73
2023-02-20T06:36:30.600Z,80.80
2023-02-20T06:38:59.701Z,80.63
2023-02-20T06:41:27.924Z,80.39
2023-02-20T06:43:56.243Z,80.17
2023-02-20T06:46:24.821Z,79.85
2023-02-20T06:48:56.112Z,78.94
2023-02-20T06:51:33.913Z,79.08
2023-02-20T06:54:03.554Z,78.99
2023-02-20T06:56:33.766Z,78.29
2023-02-20T06:59:05.260Z,78.40
2023-02-20T07:01:41.014Z,76.49
2023-02-20T07:04:22.379Z,78.77
2023-02-20T07:06:50.913Z,79.53
2023-02-20T07:09:20.513Z,79.93
2023-02-20T07:11:50.721Z,78.49
2023-02-20T07:14:19.010Z,78.00
2023-02-20T07:16:47.408Z,78.25
2023-02-20T07:19:15.755Z,77.44
2023-02-20T07:21:47.213Z,77.71
2023-02-20T07:24:15.540Z,77.16
2023-02-20T07:26:43.781Z,77.35
2023-02-20T07:29:13.803Z,77.90
2023-02-20T07:31:42.272Z,78.45
2023-02-20T07:34:10.642Z,78.57
2023-02-20T07:36:39.347Z,77.67
2023-02-20T07:39:07.544Z,78.07
2023-02-20T07:41:36.264Z,77.23
2023-02-20T07:44:07.889Z,78.84
2023-02-20T07:46:36.151Z,78.74
2023-02-20T07:49:05.756Z,78.73
2023-02-20T07:51:33.927Z,78.86
2023-02-20T07:54:02.561Z,78.21
2023-02-20T07:56:31.174Z,78.18
2023-02-20T07:59:00.956Z,78.00
2023-02-20T08:01:30.143Z,77.37
2023-02-20T08:03:58.328Z,77.90
2023-02-20T08:06:26.601Z,77.92
2023-02-20T08:08:55.240Z,77.86
2023-02-20T08:11:24.177Z,76.78
2023-02-20T08:13:55.656Z,77.44
2023-02-20T08:16:24.797Z,77.77
2023-02-20T08:18:53.864Z,76.17
2023-02-20T08:21:22.200Z,76.23
2023-02-20T08:23:50.726Z,77.27
2023-02-20T08:26:19.357Z,77.79
2023-02-20T08:28:48.814Z,75.13
2023-02-20T08:31:30.864Z,73.88
2023-02-20T08:34:00.450Z,72.60
2023-02-20T08:36:28.883Z,70.49
2023-02-20T08:38:57.590Z,71.75
2023-02-20T08:41:26.394Z,63.59
2023-02-20T08:43:55.774Z,59.76
2023-02-20T08:46:24.075Z,59.89
2023-02-20T08:48:52.406Z,63.66
2023-02-20T08:51:21.554Z,62.78
2023-02-20T08:53:49.844Z,64.21
2023-02-20T08:56:20.269Z,63.02
2023-02-20T08:58:48.511Z,64.54
2023-02-20T09:01:16.762Z,61.41
2023-02-20T09:03:45.076Z,54.43
2023-02-20T09:06:13.646Z,59.41
2023-02-20T09:08:42.078Z,58.58
2023-02-20T09:11:12.283Z,60.09
2023-02-20T09:13:45.505Z,55.51
2023-02-20T09:16:18.716Z,56.17
2023-02-20T09:18:47.453Z,58.34
2023-02-20T09:21:19.371Z,57.94
2023-02-20T09:23:47.738Z,52.40
2023-02-20T09:26:15.968Z,51.71
2023-02-20T09:28:44.242Z,50.28
2023-02-20T09:31:12.461Z,46.26
2023-02-20T09:33:47.735Z,46.44
2023-02-20T09:36:19.365Z,46.02
2023-02-20T09:38:47.567Z,49.73
2023-02-20T09:41:43.037Z,51.14
2023-02-20T09:44:22.636Z,51.23
2023-02-20T09:46:53.118Z,52.76
2023-02-20T09:49:26.998Z,51.95
2023-02-20T09:51:59.903Z,51.88
2023-02-20T09:54:39.768Z,51.79
2023-02-20T09:57:15.355Z,53.88
2023-02-20T09:59:54.173Z,49.34
2023-02-20T10:02:29.054Z,49.95
2023-02-20T10:05:06.337Z,45.82
2023-02-20T10:07:38.154Z,42.60
2023-02-20T10:10:28.281Z,45.58
2023-02-20T10:13:13.827Z,40.47
2023-02-20T10:16:26.656Z,42.16
2023-02-20T10:19:18.483Z,41.11
2023-02-20T10:21:52.363Z,42.07
2023-02-20T10:24:42.592Z,41.25
2023-02-20T10:27:25.991Z,38.60
2023-02-20T10:29:57.754Z,35.64
2023-02-20T10:32:35.960Z,37.86
2023-02-20T10:35:12.994Z,35.24
2023-02-20T10:37:48.244Z,38.79
2023-02-20T10:40:33.845Z,34.42
2023-02-20T10:43:22.920Z,36.63
2023-02-20T10:46:12.720Z,36.84
2023-02-20T10:48:42.931Z,37.62
2023-02-20T10:51:19.988Z,37.95
2023-02-20T10:54:10.651Z,40.16
2023-02-20T10:56:43.940Z,41.67
2023-02-20T10:59:37.173Z,42.43
2023-02-20T11:02:12.244Z,43.57
2023-02-20T11:04:48.403Z,45.25
2023-02-20T11:07:22.349Z,45.61
2023-02-20T11:09:50.563Z,45.36
2023-02-20T11:12:26.296Z,46.90
2023-02-20T11:14:57.361Z,48.56
2023-02-20T11:17:28.263Z,49.84
2023-02-20T11:19:58.333Z,50.67
2023-02-20T11:22:53.447Z,50.30
2023-02-20T11:25:27.877Z,51.09
2023-02-20T11:28:17.988Z,50.92
2023-02-20T11:30:50.164Z,50.92
2023-02-20T11:33:30.914Z,51.35
2023-02-20T11:36:12.473Z,52.53
2023-02-20T11:38:42.309Z,51.44
2023-02-20T11:41:27.266Z,51.99
2023-02-20T11:44:07.356Z,52.53
2023-02-20T11:46:36.015Z,53.13
2023-02-20T11:49:31.714Z,52.97
2023-02-20T11:52:20.154Z,54.41
2023-02-20T11:55:09.078Z,54.98
2023-02-20T11:57:43.977Z,55.56
2023-02-20T12:00:20.296Z,54.77
2023-02-20T12:03:14.374Z,54.79
2023-02-20T12:05:45.751Z,54.07
2023-02-20T12:08:39.055Z,54.91
2023-02-20T12:11:07.163Z,55.86
2023-02-20T12:13:40.512Z,56.01
2023-02-20T12:16:50.236Z,54.55
2023-02-20T12:19:27.321Z,54.48
2023-02-20T12:22:01.288Z,54.21
2023-02-20T12:24:43.577Z,54.35
2023-02-20T12:27:41.402Z,54.39
2023-02-20T12:30:21.847Z,54.63
2023-02-20T12:33:18.923Z,54.74
2023-02-20T12:35:59.197Z,55.35
2023-02-20T12:38:50.496Z,56.02
2023-02-20T12:41:56.098Z,56.35
2023-02-20T12:44:49.865Z,56.55
2023-02-20T12:47:29.640Z,55.84
2023-02-20T12:50:07.168Z,56.54
2023-02-20T12:53:11.060Z,57.51
2023-02-20T12:56:02.601Z,57.18
2023-02-20T12:58:52.096Z,57.79
2023-02-20T13:01:34.281Z,57.27
2023-02-20T13:04:25.677Z,57.17
2023-02-20T13:07:01.413Z,57.21
2023-02-20T13:09:42.840Z,57.42
2023-02-20T13:12:16.903Z,57.63
2023-02-20T13:15:23.017Z,56.25
2023-02-20T13:18:06.706Z,56.52
2023-02-20T13:20:44.950Z,56.72
2023-02-20T13:23:15.894Z,55.86
2023-02-20T13:25:45.437Z,56.50
2023-02-20T13:28:29.557Z,56.42
2023-02-20T13:31:12.076Z,57.37
2023-02-20T13:34:10.620Z,57.27
2023-02-20T13:36:41.722Z,57.32
2023-02-20T13:39:19.453Z,57.35
2023-02-20T13:41:54.180Z,57.88
2023-02-20T13:44:31.287Z,58.30
2023-02-20T13:47:02.728Z,58.30
2023-02-20T13:49:49.092Z,59.05
2023-02-20T13:52:29.536Z,59.11
2023-02-20T13:55:17.701Z,58.93
2023-02-20T13:58:03.215Z,58.91
2023-02-20T14:00:34.327Z,59.54
2023-02-20T14:03:11.980Z,59.88
2023-02-20T14:05:41.330Z,60.70
2023-02-20T14:08:18.651Z,61.36
2023-02-20T14:10:49.757Z,61.01
2023-02-20T14:13:39.053Z,61.44
2023-02-20T14:16:35.863Z,62.50
2023-02-20T14:19:26.356Z,62.76
2023-02-20T14:21:54.733Z,62.86
2023-02-20T14:24:27.381Z,62.77
2023-02-20T14:26:57.160Z,63.37
2023-02-20T14:29:31.997Z,64.43
2023-02-20T14:32:02.548Z,64.54
2023-02-20T14:34:38.596Z,64.79
2023-02-20T14:37:28.160Z,64.44
2023-02-20T14:40:14.576Z,64.58
2023-02-20T14:42:45.822Z,64.18
2023-02-20T14:45:21.737Z,65.27
2023-02-20T14:47:51.953Z,65.10
2023-02-20T14:50:22.074Z,65.13
2023-02-20T14:53:13.693Z,65.71
2023-02-20T14:55:42.061Z,66.04
2023-02-20T14:58:23.480Z,65.89
2023-02-20T15:00:53.640Z,65.27
2023-02-20T15:03:31.695Z,67.12
2023-02-20T15:06:03.528Z,66.62
2023-02-20T15:08:36.196Z,66.93
2023-02-20T15:11:16.796Z,66.31
2023-02-20T15:13:47.044Z,66.03
2023-02-20T15:16:21.967Z,66.05
2023-02-20T15:18:50.915Z,66.41
2023-02-20T15:21:41.369Z,66.32
2023-02-20T15:24:35.845Z,67.46
2023-02-20T15:27:18.027Z,67.85
2023-02-20T15:29:47.476Z,68.32
2023-02-20T15:32:22.621Z,68.37
2023-02-20T15:34:56.670Z,69.33
2023-02-20T15:37:38.350Z,69.69
2023-02-20T15:40:24.914Z,69.11
2023-02-20T15:42:57.820Z,69.23
2023-02-20T15:45:29.506Z,68.97
2023-02-20T15:47:58.785Z,68.32
2023-02-20T15:50:27.573Z,68.13
2023-02-20T15:52:58.882Z,68.83
2023-02-20T15:55:28.506Z,67.97
2023-02-20T15:58:04.647Z,67.98
2023-02-20T16:00:35.789Z,69.03
2023-02-20T16:03:08.689Z,68.17
2023-02-20T16:05:37.015Z,68.40
2023-02-20T16:08:06.733Z,68.50
2023-02-20T16:11:15.824Z,68.04
2023-02-20T16:14:36.560Z,69.36
2023-02-20T16:18:39.637Z,69.51
2023-02-20T16:23:11.715Z,70.28
2023-02-20T16:26:53.539Z,69.62
2023-02-20T16:31:14.637Z,69.59
2023-02-20T16:34:45.911Z,69.25
2023-02-20T16:37:54.489Z,69.75
2023-02-20T16:41:08.927Z,70.41
2023-02-20T16:44:43.281Z,70.20
2023-02-20T16:47:33.463Z,69.70
2023-02-20T16:50:38.114Z,70.18
2023-02-20T16:53:06.554Z,70.42
2023-02-20T16:55:37.503Z,71.01
2023-02-20T16:58:26.560Z,71.47
2023-02-20T17:00:57.906Z,70.63
2023-02-20T17:03:28.035Z,71.63
2023-02-20T17:05:59.659Z,72.46
2023-02-20T17:08:30.381Z,72.09
2023-02-20T17:11:00.147Z,71.63
2023-02-20T17:13:28.526Z,71.40
2023-02-20T17:15:56.906Z,71.30
2023-02-20T17:18:25.177Z,71.15
2023-02-20T17:20:53.371Z,70.44
2023-02-20T17:23:21.587Z,71.49
2023-02-20T17:25:49.838Z,70.44
2023-02-20T17:28:18.200Z,70.54
2023-02-20T17:30:51.260Z,71.11
2023-02-20T17:33:19.544Z,71.37
2023-02-20T17:35:47.798Z,70.73
2023-02-20T17:38:16.199Z,71.40
2023-02-20T17:40:44.491Z,71.47
2023-02-20T17:43:14.065Z,72.33
2023-02-20T17:45:43.408Z,72.24
2023-02-20T17:48:11.822Z,72.55
2023-02-20T17:50:40.129Z,72.23
2023-02-20T17:53:11.624Z,72.25
2023-02-20T17:55:39.782Z,71.83
2023-02-20T17:58:07.966Z,72.40
2023-02-20T18:00:36.204Z,71.41
2023-02-20T18:03:04.575Z,71.46
2023-02-20T18:05:32.901Z,71.73
2023-02-20T18:08:01.286Z,71.61
2023-02-20T18:10:29.550Z,72.49
2023-02-20T18:13:03.759Z,72.11
2023-02-20T18:15:33.835Z,72.57
2023-02-20T18:18:03.127Z,72.81
2023-02-20T18:20:31.426Z,73.12
2023-02-20T18:22:59.692Z,73.13
2023-02-20T18:25:39.567Z,73.09
2023-02-20T18:28:10.719Z,72.62
2023-02-20T18:30:39.617Z,72.46
2023-02-20T18:33:08.661Z,72.36
2023-02-20T18:35:37.417Z,73.38
2023-02-20T18:38:05.680Z,72.62
2023-02-20T18:40:33.807Z,72.79
2023-02-20T18:43:02.014Z,72.63
2023-02-20T18:45:30.227Z,73.13
2023-02-20T18:47:58.496Z,73.16
2023-02-20T18:50:26.692Z,73.75
2023-02-20T18:52:54.862Z,74.49
2023-02-20T18:55:23.878Z,74.82
2023-02-20T18:57:53.186Z,74.80
2023-02-20T19:00:24.677Z,74.97
2023-02-20T19:02:54.962Z,75.10
2023-02-20T19:05:27.564Z,75.84
2023-02-20T19:07:55.929Z,76.28
2023-02-20T19:10:25.934Z,76.45
2023-02-20T19:12:54.473Z,76.72
2023-02-20T19:15:24.145Z,76.22
2023-02-20T19:17:52.680Z,76.40
2023-02-20T19:20:26.840Z,77.45
2023-02-20T19:22:58.529Z,77.59
2023-02-20T19:25:26.749Z,78.44
2023-02-20T19:27:55.025Z,78.79
2023-02-20T19:30:23.248Z,79.36
2023-02-20T19:32:51.490Z,79.75
2023-02-20T19:35:19.858Z,79.80
2023-02-20T19:37:48.095Z,79.52
2023-02-20T19:40:16.408Z,79.27
2023-02-20T19:42:44.564Z,79.08
2023-02-20T19:45:12.822Z,79.09
2023-02-20T19:47:41.014Z,77.97
2023-02-20T19:50:10.430Z,78.38
2023-02-20T19:52:42.241Z,77.78
2023-02-20T19:55:18.033Z,77.67
2023-02-20T19:57:46.353Z,79.14
2023-02-20T20:00:18.185Z,78.04
2023-02-20T20:02:52.117Z,78.29
2023-02-20T20:05:20.759Z,79.49
2023-02-20T20:07:50.590Z,79.51
2023-02-20T20:10:23.215Z,78.93
2023-02-20T20:12:51.505Z,78.68
2023-02-20T20:15:22.562Z,78.80
2023-02-20T20:17:54.303Z,79.22
2023-02-20T20:20:23.869Z,79.71
2023-02-20T20:22:55.219Z,81.19
2023-02-20T20:25:24.853Z,81.34
2023-02-20T20:27:54.916Z,81.48
2023-02-20T20:30:27.158Z,81.26
2023-02-20T20:32:57.056Z,81.63
2023-02-20T20:35:29.186Z,81.12
2023-02-20T20:37:58.672Z,82.50
2023-02-20T20:40:28.298Z,82.48
2023-02-20T20:42:58.503Z,82.87
2023-02-20T20:45:26.974Z,82.84
2023-02-20T20:47:55.299Z,83.74
2023-02-20T20:50:27.830Z,84.61
2023-02-20T20:53:02.732Z,83.74
2023-02-20T20:55:31.219Z,84.28
2023-02-20T20:57:59.531Z,82.95
2023-02-20T21:00:31.572Z,82.89
2023-02-20T21:02:59.744Z,82.50
2023-02-20T21:05:30.681Z,84.04
2023-02-20T21:07:59.811Z,82.88
2023-02-20T21:10:27.963Z,84.12
2023-02-20T21:12:58.321Z,84.63
2023-02-20T21:15:27.404Z,83.49
2023-02-20T21:17:55.636Z,83.55
2023-02-20T21:20:26.022Z,83.32
2023-02-20T21:22:54.247Z,82.96
2023-02-20T21:25:25.927Z,82.19
2023-02-20T21:27:55.607Z,82.61
2023-02-20T21:30:26.143Z,82.40
2023-02-20T21:32:54.419Z,82.34
2023-02-20T21:35:23.657Z,83.04
2023-02-20T21:37:52.007Z,83.62
2023-02-20T21:40:20.198Z,84.10
2023-02-20T21:43:06.971Z,83.53
2023-02-20T21:45:36.559Z,83.67
2023-02-20T21:48:05.525Z,84.29
2023-02-20T21:50:33.876Z,84.30
2023-02-20T21:53:02.356Z,83.64
2023-02-20T21:55:30.744Z,83.88
2023-02-20T21:57:58.869Z,85.08
2023-02-20T22:00:26.927Z,84.97
2023-02-20T22:02:55.036Z,84.39
2023-02-20T22:05:23.182Z,84.36
2023-02-20T22:08:09.923Z,84.08
2023-02-20T22:10:56.695Z,84.11
2023-02-20T22:13:44.685Z,85.14
2023-02-20T22:16:40.141Z,84.79
2023-02-20T22:19:26.961Z,84.87
2023-02-20T22:22:13.747Z,85.63
2023-02-20T22:25:00.861Z,85.97
2023-02-20T22:27:47.976Z,85.05
2023-02-20T22:30:34.732Z,84.32
2023-02-20T22:33:21.650Z,83.75
2023-02-20T22:36:08.689Z,83.92
2023-02-20T22:38:55.482Z,83.94
2023-02-20T22:41:42.426Z,84.23
2023-02-20T22:44:29.325Z,85.18
2023-02-20T22:47:16.063Z,84.70
2023-02-20T22:50:02.829Z,85.25
2023-02-20T22:52:49.642Z,85.38
2023-02-20T22:55:36.443Z,84.98
2023-02-20T22:58:23.245Z,85.21
2023-02-20T23:01:10.140Z,84.12
2023-02-20T23:03:58.471Z,85.42
2023-02-20T23:06:45.744Z,85.31
2023-02-20T23:09:32.649Z,85.67
2023-02-20T23:12:19.703Z,85.23
2023-02-20T23:15:06.510Z,85.66
2023-02-20T23:17:53.407Z,85.67
2023-02-20T23:20:42.427Z,84.70
2023-02-20T23:23:30.963Z,84.20
2023-02-20T23:26:18.330Z,84.31
2023-02-20T23:29:05.391Z,83.58
2023-02-20T23:32:03.409Z,84.12
2023-02-20T23:34:50.800Z,84.37
2023-02-20T23:37:37.704Z,84.82
2023-02-20T23:40:36.171Z,86.04
2023-02-20T23:43:27.554Z,85.81
2023-02-20T23:46:14.413Z,85.42
2023-02-20T23:49:01.222Z,85.35
2023-02-20T23:51:50.356Z,84.86
2023-02-20T23:54:37.280Z,85.74
2023-02-20T23:57:24.311Z,84.86
